Time;durP1;ratioP1;P1;durP2;ratioP2;P2;SDS_P1;SDS_P2;PMS_P1;PMS_P2;Temp;Humidity;BMP_temperature;BMP_pressure;BME280_temperature;BME280_humidity;BME280_pressure;Samples;Min_cycle;Max_cycle;Signal;HPM_P1;HPM_P2
2022/09/29 00:01:30;;;;;;;;;;;;;;;19.36;76.50;96050.00;618847;229;65723;-71
2022/09/29 00:03:57;;;;;;;;;;;;;;;19.36;76.49;96047.33;618858;229;64915;-72
2022/09/29 00:06:25;;;;;;;;;;;;;;;19.36;76.32;96054.53;618829;229;67932;-72
2022/09/29 00:08:52;;;;;;;;;;;;;;;19.37;76.37;96048.94;618866;229;67487;-72
2022/09/29 00:11:20;;;;;;;;;;;;;;;19.37;76.46;96046.27;618832;229;65145;-72
2022/09/29 00:13:47;;;;;;;;;;;;;;;19.37;76.42;96034.80;618861;229;68029;-72
2022/09/29 00:16:15;;;;;;;;;;;;;;;19.37;76.35;96046.27;618798;229;67608;-71
2022/09/29 00:18:43;;;;;;;;;;;;;;;19.36;76.26;96042.00;618844;229;63816;-72
2022/09/29 00:21:12;;;;;;;;;;;;;;;19.37;76.44;96045.45;618817;227;67992;-72
2022/09/29 00:23:39;;;;;;;;;;;;;;;19.37;76.56;96035.61;618839;229;66968;-72
2022/09/29 00:26:11;;;;;;;;;;;;;;;19.36;76.51;96028.68;618841;229;63631;-72
2022/09/29 00:28:40;;;;;;;;;;;;;;;19.38;76.57;96036.41;618842;229;67043;-72
2022/09/29 00:31:10;;;;;;;;;;;;;;;19.37;76.41;96034.80;618849;229;64951;-72
2022/09/29 00:33:38;;;;;;;;;;;;;;;19.37;76.54;96032.13;618835;229;66487;-72
2022/09/29 00:36:07;;;;;;;;;;;;;;;19.37;76.60;96032.13;618845;229;64502;-72
2022/09/29 00:38:35;;;;;;;;;;;;;;;19.37;76.62;96021.48;618824;229;66987;-72
2022/09/29 00:41:03;;;;;;;;;;;;;;;19.37;76.69;96024.14;618818;229;64833;-72
2022/09/29 00:43:48;;;;;;;;;;;;;;;19.36;76.60;96023.36;618850;229;65076;-72
2022/09/29 00:46:17;;;;;;;;;;;;;;;19.36;76.55;96025.23;618811;227;64767;-71
2022/09/29 00:48:47;;;;;;;;;;;;;;;19.36;76.58;96027.89;618812;229;65028;-71
2022/09/29 00:51:15;;;;;;;;;;;;;;;19.36;76.53;96034.01;618850;229;67126;-72
2022/09/29 00:53:43;;;;;;;;;;;;;;;19.36;76.51;96034.01;618820;227;66722;-71
2022/09/29 00:56:12;;;;;;;;;;;;;;;19.36;76.65;96027.89;618838;227;65112;-71
2022/09/29 00:58:44;;;;;;;;;;;;;;;19.36;76.41;96036.67;618815;229;67241;-72
2022/09/29 01:01:13;;;;;;;;;;;;;;;19.36;76.49;96036.67;618774;228;66857;-72
2022/09/29 01:03:41;;;;;;;;;;;;;;;19.35;76.51;96035.09;618826;229;63032;-72
2022/09/29 01:06:11;;;;;;;;;;;;;;;19.36;76.37;96033.22;618842;229;64871;-71
2022/09/29 01:08:41;;;;;;;;;;;;;;;19.36;76.42;96034.01;618846;229;67267;-71
2022/09/29 01:11:10;;;;;;;;;;;;;;;19.36;76.59;96043.88;618779;229;64834;-71
2022/09/29 01:13:38;;;;;;;;;;;;;;;19.36;76.49;96033.22;618839;229;65831;-72
2022/09/29 01:16:06;;;;;;;;;;;;;;;19.36;76.31;96046.55;617100;229;65674;-72
2022/09/29 01:18:34;;;;;;;;;;;;;;;19.37;76.39;96040.13;615435;228;65104;-72
2022/09/29 01:21:19;;;;;;;;;;;;;;;19.37;76.49;96050.78;615455;230;64939;-72
2022/09/29 01:23:51;;;;;;;;;;;;;;;19.36;76.54;96046.55;615441;228;64698;-71
2022/09/29 01:26:26;;;;;;;;;;;;;;;19.36;76.34;96059.86;614828;230;62711;-71
2022/09/29 01:29:10;;;;;;;;;;;;;;;19.37;76.63;96066.77;615433;230;67057;-71
2022/09/29 01:31:46;;;;;;;;;;;;;;;19.36;76.47;96070.52;615443;230;67206;-71
2022/09/29 01:34:18;;;;;;;;;;;;;;;19.36;76.54;96065.19;615243;230;64914;-71
2022/09/29 01:36:47;;;;;;;;;;;;;;;19.36;76.55;96065.19;615464;230;67127;-71
2022/09/29 01:39:19;;;;;;;;;;;;;;;19.36;76.60;96062.53;615167;230;67067;-71
2022/09/29 01:41:48;;;;;;;;;;;;;;;19.35;76.52;96058.29;615064;230;63845;-71
2022/09/29 01:44:26;;;;;;;;;;;;;;;19.36;76.61;96067.86;615374;230;65022;-71
2022/09/29 01:47:04;;;;;;;;;;;;;;;19.35;76.40;96060.95;615369;230;64828;-71
2022/09/29 01:49:33;;;;;;;;;;;;;;;19.35;76.46;96059.08;615402;230;62869;-71
2022/09/29 01:52:02;;;;;;;;;;;;;;;19.36;76.55;96059.86;615432;230;64521;-71
2022/09/29 01:54:31;;;;;;;;;;;;;;;19.35;76.69;96066.28;615457;230;64815;-71
2022/09/29 01:57:03;;;;;;;;;;;;;;;19.35;76.31;96063.61;614430;229;63767;-71
2022/09/29 01:59:33;;;;;;;;;;;;;;;19.35;76.56;96066.28;615118;230;67383;-71
2022/09/29 02:02:01;;;;;;;;;;;;;;;19.35;76.49;96077.73;615043;230;67726;-71
2022/09/29 02:04:30;;;;;;;;;;;;;;;19.35;76.41;96076.94;615309;230;63618;-71
2022/09/29 02:06:59;;;;;;;;;;;;;;;19.36;76.58;96078.52;615447;230;64895;-71
2022/09/29 02:09:29;;;;;;;;;;;;;;;19.35;76.76;96084.93;615405;230;65834;-71
2022/09/29 02:11:57;;;;;;;;;;;;;;;19.35;76.65;96084.93;615275;230;62859;-71
2022/09/29 02:14:27;;;;;;;;;;;;;;;19.35;76.71;96087.59;615481;230;64804;-71
2022/09/29 02:16:59;;;;;;;;;;;;;;;19.34;76.67;96077.99;615384;229;66891;-71
2022/09/29 02:19:28;;;;;;;;;;;;;;;19.35;76.77;96076.94;615405;230;72029;-71
2022/09/29 02:21:55;;;;;;;;;;;;;;;19.35;76.58;96079.60;615373;230;64823;-71
2022/09/29 02:24:23;;;;;;;;;;;;;;;19.35;76.59;96075.06;615454;230;66890;-71
2022/09/29 02:26:51;;;;;;;;;;;;;;;19.35;76.62;96071.61;615429;230;65021;-71
2022/09/29 02:29:19;;;;;;;;;;;;;;;19.36;76.71;96078.52;615450;230;64824;-70
2022/09/29 02:31:47;;;;;;;;;;;;;;;19.35;76.79;96074.27;615432;230;67150;-71
2022/09/29 02:34:16;;;;;;;;;;;;;;;19.35;76.68;96071.61;609415;230;63144;-71
2022/09/29 02:36:45;;;;;;;;;;;;;;;19.36;76.61;96075.84;615402;230;67020;-71
2022/09/29 02:39:14;;;;;;;;;;;;;;;19.35;76.73;96083.05;615473;230;66573;-71
2022/09/29 02:41:49;;;;;;;;;;;;;;;19.36;76.70;96086.51;615270;230;65954;-71
2022/09/29 02:44:22;;;;;;;;;;;;;;;19.36;76.65;96097.16;615055;230;67114;-71
2022/09/29 02:47:03;;;;;;;;;;;;;;;19.35;76.69;96091.05;615425;230;68140;-71
2022/09/29 02:49:33;;;;;;;;;;;;;;;19.35;76.80;96090.25;615115;228;62733;-71
2022/09/29 02:52:02;;;;;;;;;;;;;;;19.35;76.75;96082.27;614481;230;64802;-71
2022/09/29 02:54:41;;;;;;;;;;;;;;;19.35;76.65;96080.39;611271;230;64797;-71
2022/09/29 02:57:27;;;;;;;;;;;;;;;19.35;76.77;96087.59;615222;228;65189;-71
2022/09/29 02:59:59;;;;;;;;;;;;;;;19.35;76.87;96082.27;615472;230;67152;-70
2022/09/29 03:02:27;;;;;;;;;;;;;;;19.34;76.71;96083.32;615483;230;67057;-71
2022/09/29 03:04:54;;;;;;;;;;;;;;;19.33;76.59;96085.20;615510;230;64877;-71
2022/09/29 03:07:22;;;;;;;;;;;;;;;19.34;76.76;96089.44;615444;230;64480;-71
2022/09/29 03:09:49;;;;;;;;;;;;;;;19.35;76.92;96090.25;615465;230;64805;-71
2022/09/29 03:12:17;;;;;;;;;;;;;;;19.34;76.91;96080.66;615437;230;62760;-71
2022/09/29 03:14:44;;;;;;;;;;;;;;;19.33;76.82;96077.20;615481;230;66069;-71
2022/09/29 03:17:12;;;;;;;;;;;;;;;19.33;76.95;96077.20;615453;229;67762;-71
2022/09/29 03:19:40;;;;;;;;;;;;;;;19.34;76.81;96080.66;615477;228;65043;-70
2022/09/29 03:22:07;;;;;;;;;;;;;;;19.33;76.73;96093.19;615506;230;66975;-71
2022/09/29 03:24:35;;;;;;;;;;;;;;;19.34;76.75;96091.31;615448;230;66816;-71
2022/09/29 03:27:03;;;;;;;;;;;;;;;19.34;76.96;96092.10;615491;230;64564;-71
2022/09/29 03:29:30;;;;;;;;;;;;;;;19.35;76.80;96095.59;615531;230;66661;-71
2022/09/29 03:31:59;;;;;;;;;;;;;;;19.34;76.87;96094.77;615492;230;66783;-71
2022/09/29 03:34:26;;;;;;;;;;;;;;;19.34;76.89;96097.43;615484;230;62992;-72
2022/09/29 03:36:54;;;;;;;;;;;;;;;19.34;76.80;96088.66;615457;230;64376;-72
2022/09/29 03:39:22;;;;;;;;;;;;;;;19.34;76.85;96097.43;615503;228;64717;-72
2022/09/29 03:41:50;;;;;;;;;;;;;;;19.34;76.81;96092.10;615478;230;66066;-72
2022/09/29 03:44:17;;;;;;;;;;;;;;;19.34;76.75;96092.10;615485;230;64706;-72
2022/09/29 03:46:46;;;;;;;;;;;;;;;19.35;76.80;96098.25;615487;230;66551;-72
2022/09/29 03:49:17;;;;;;;;;;;;;;;19.34;76.76;96100.09;615462;230;65105;-71
2022/09/29 03:51:44;;;;;;;;;;;;;;;19.34;76.85;96110.75;615431;230;66810;-72
2022/09/29 03:54:12;;;;;;;;;;;;;;;19.34;76.71;96100.09;615479;230;64528;-71
2022/09/29 03:56:39;;;;;;;;;;;;;;;19.34;76.73;96101.97;615459;230;64956;-71
2022/09/29 03:59:09;;;;;;;;;;;;;;;19.35;76.84;96100.91;615458;230;64889;-71
2022/09/29 04:01:37;;;;;;;;;;;;;;;19.34;76.79;96100.09;615377;230;65082;-71
2022/09/29 04:04:05;;;;;;;;;;;;;;;19.34;76.78;96099.30;615374;230;66031;-72
2022/09/29 04:06:35;;;;;;;;;;;;;;;19.33;76.71;96098.52;615426;230;64878;-71
2022/09/29 04:09:02;;;;;;;;;;;;;;;19.34;76.78;96094.77;615386;228;67268;-71
2022/09/29 04:11:30;;;;;;;;;;;;;;;19.33;76.79;96098.52;615415;230;62949;-71
2022/09/29 04:13:57;;;;;;;;;;;;;;;19.34;76.82;96101.97;615388;230;64873;-71
2022/09/29 04:16:25;;;;;;;;;;;;;;;19.35;76.67;96100.91;615362;228;67055;-72
2022/09/29 04:18:53;;;;;;;;;;;;;;;19.34;76.97;96099.30;615439;228;64869;-71
2022/09/29 04:21:20;;;;;;;;;;;;;;;19.34;76.81;96093.98;615392;230;64371;-72
2022/09/29 04:23:48;;;;;;;;;;;;;;;19.33;76.85;96109.17;615412;230;67728;-71
2022/09/29 04:26:16;;;;;;;;;;;;;;;19.33;76.83;96111.05;615384;228;66627;-72
2022/09/29 04:28:44;;;;;;;;;;;;;;;19.34;76.58;96115.30;615382;228;68149;-72
2022/09/29 04:31:11;;;;;;;;;;;;;;;19.34;76.72;96107.30;615414;230;66869;-72
2022/09/29 04:33:40;;;;;;;;;;;;;;;19.34;76.72;96115.30;615447;230;65514;-72
2022/09/29 04:36:10;;;;;;;;;;;;;;;19.34;76.79;96120.62;615396;230;67020;-72
2022/09/29 04:38:37;;;;;;;;;;;;;;;19.34;76.62;96120.62;615405;230;64938;-69
2022/09/29 04:41:05;;;;;;;;;;;;;;;19.34;76.84;96126.73;615416;230;62744;-71
2022/09/29 04:43:32;;;;;;;;;;;;;;;19.34;76.75;96125.95;615398;230;64800;-71
2022/09/29 04:46:07;;;;;;;;;;;;;;;19.34;76.79;96131.27;615440;230;64936;-70
2022/09/29 04:48:35;;;;;;;;;;;;;;;19.34;76.83;96128.61;615399;230;66046;-71
2022/09/29 04:51:03;;;;;;;;;;;;;;;19.34;76.76;96125.95;615352;230;65784;-71
2022/09/29 04:53:30;;;;;;;;;;;;;;;19.34;76.82;96133.94;615390;228;65011;-71
2022/09/29 04:55:58;;;;;;;;;;;;;;;19.33;76.84;96129.70;615415;230;62724;-71
2022/09/29 04:58:26;;;;;;;;;;;;;;;19.33;76.78;96135.03;615432;230;64854;-71
2022/09/29 05:00:53;;;;;;;;;;;;;;;19.33;76.64;96146.47;615400;230;66680;-71
2022/09/29 05:03:22;;;;;;;;;;;;;;;19.34;76.82;96147.26;615408;228;64893;-70
2022/09/29 05:05:51;;;;;;;;;;;;;;;19.33;76.90;96137.69;615151;230;66939;-73
2022/09/29 05:08:18;;;;;;;;;;;;;;;19.32;76.21;96136.11;614607;228;65468;-73
2022/09/29 05:10:46;;;;;;;;;;;;;;;19.32;76.41;96134.23;614162;230;64046;-73
2022/09/29 05:13:14;;;;;;;;;;;;;;;19.33;76.63;96132.36;615314;230;68155;-73
2022/09/29 05:15:41;;;;;;;;;;;;;;;19.33;76.44;96127.03;616475;229;67545;-73
2022/09/29 05:18:09;;;;;;;;;;;;;;;19.32;76.61;96123.58;618799;229;64416;-69
2022/09/29 05:20:36;;;;;;;;;;;;;;;19.32;76.59;96118.25;618790;229;64819;-69
2022/09/29 05:23:08;;;;;;;;;;;;;;;19.32;76.34;96123.58;618801;229;66866;-69
2022/09/29 05:25:34;;;;;;;;;;;;;;;19.32;76.33;96123.58;618720;227;62731;-69
2022/09/29 05:28:04;;;;;;;;;;;;;;;19.33;76.51;96111.05;618781;229;67021;-70
2022/09/29 05:30:32;;;;;;;;;;;;;;;19.33;76.40;96121.70;618772;227;65398;-73
2022/09/29 05:32:59;;;;;;;;;;;;;;;19.32;76.34;96115.59;618806;229;62801;-72
2022/09/29 05:35:27;;;;;;;;;;;;;;;19.32;76.27;96125.45;618779;229;66723;-73
2022/09/29 05:37:54;;;;;;;;;;;;;;;19.33;76.24;96124.38;618798;229;66923;-73
2022/09/29 05:40:25;;;;;;;;;;;;;;;19.32;76.17;96133.45;618748;229;65154;-72
2022/09/29 05:42:53;;;;;;;;;;;;;;;19.32;76.24;96118.25;618732;229;65868;-73
2022/09/29 05:45:20;;;;;;;;;;;;;;;19.32;76.41;96112.14;618658;229;64918;-72
2022/09/29 05:47:48;;;;;;;;;;;;;;;19.33;76.18;96103.05;618595;229;64953;-71
2022/09/29 05:50:16;;;;;;;;;;;;;;;19.30;75.98;96094.55;618764;227;64713;-70
2022/09/29 05:52:47;;;;;;;;;;;;;;;19.31;76.16;96108.66;618068;226;65710;-70
2022/09/29 05:55:12;;;;;;;;;;;;;;;19.32;75.93;96114.80;618658;228;65115;-72
2022/09/29 05:57:40;;;;;;;;;;;;;;;19.30;76.10;96110.53;623735;226;67991;-70
2022/09/29 06:00:08;;;;;;;;;;;;;;;19.31;76.34;96116.65;625643;226;64820;-72
2022/09/29 06:02:38;;;;;;;;;;;;;;;19.32;76.36;96123.58;625205;226;37544;-72
2022/09/29 06:05:06;;;;;;;;;;;;;;;19.30;76.35;96107.87;625526;226;67060;-71
2022/09/29 06:07:35;;;;;;;;;;;;;;;19.30;76.31;96105.20;625700;226;67691;-70
2022/09/29 06:10:03;;;;;;;;;;;;;;;19.31;76.24;96095.33;625816;226;66348;-71
2022/09/29 06:12:32;;;;;;;;;;;;;;;19.31;76.20;96100.66;625823;226;64745;-71
2022/09/29 06:14:59;;;;;;;;;;;;;;;19.30;77.61;96105.20;625687;226;64791;-71
2022/09/29 06:17:27;;;;;;;;;;;;;;;19.28;75.37;96102.02;625855;226;62773;-71
2022/09/29 06:19:54;;;;;;;;;;;;;;;19.28;75.46;96093.23;625792;226;64773;-71
2022/09/29 06:22:22;;;;;;;;;;;;;;;19.31;75.37;96100.66;625851;226;64738;-71
2022/09/29 06:24:49;;;;;;;;;;;;;;;19.32;75.46;96096.16;625844;226;64813;-72
2022/09/29 06:27:17;;;;;;;;;;;;;;;19.33;75.17;96097.73;625782;226;67030;-71
2022/09/29 06:29:44;;;;;;;;;;;;;;;19.32;75.28;96088.16;625895;226;67169;-70
2022/09/29 06:32:12;;;;;;;;;;;;;;;19.33;75.32;96098.52;625801;226;62928;-72
2022/09/29 06:37:33;;;;;;;;;;;;;;;19.33;75.36;96092.40;625838;226;66996;-70
2022/09/29 06:39:54;;;;;;;;;;;;;;;19.35;75.59;96092.92;625768;226;62908;-69
2022/09/29 06:42:24;;;;;;;;;;;;;;;19.38;75.17;96084.36;625713;226;65996;-67
2022/09/29 06:44:52;;;;;;;;;;;;;;;19.40;74.98;96087.55;625832;226;66890;-68
2022/09/29 06:47:19;;;;;;;;;;;;;;;19.41;75.08;96087.24;623049;226;64842;-68
2022/09/29 06:49:47;;;;;;;;;;;;;;;19.41;75.06;96089.12;618687;229;66974;-71
2022/09/29 06:52:15;;;;;;;;;;;;;;;19.43;74.99;96093.09;618683;229;67305;-73
2022/09/29 06:54:42;;;;;;;;;;;;;;;19.43;74.88;96089.64;621353;226;63813;-71
2022/09/29 06:57:10;;;;;;;;;;;;;;;19.45;74.86;96090.13;621963;226;67557;-72
2022/09/29 06:59:38;;;;;;;;;;;;;;;19.45;74.81;96092.80;618770;229;66841;-72
2022/09/29 07:02:06;;;;;;;;;;;;;;;19.45;74.87;96096.27;618726;229;65137;-73
2022/09/29 07:04:33;;;;;;;;;;;;;;;19.46;74.68;96089.07;618698;229;65180;-70
2022/09/29 07:07:01;;;;;;;;;;;;;;;19.46;74.71;96091.73;618763;229;64885;-71
2022/09/29 07:09:28;;;;;;;;;;;;;;;19.47;74.78;96093.31;618728;229;64684;-71
2022/09/29 07:11:56;;;;;;;;;;;;;;;19.47;74.85;96094.09;618265;229;64834;-69
2022/09/29 07:14:24;;;;;;;;;;;;;;;19.47;74.66;96094.09;618568;229;64715;-72
2022/09/29 07:16:52;;;;;;;;;;;;;;;19.48;74.79;96092.25;615570;229;64961;-72
2022/09/29 07:19:19;;;;;;;;;;;;;;;19.48;74.68;96090.37;615157;230;67221;-71
2022/09/29 07:21:47;;;;;;;;;;;;;;;19.48;74.59;96098.37;615372;230;65692;-69
2022/09/29 07:24:15;;;;;;;;;;;;;;;19.49;74.63;96096.50;615308;230;64855;-70
2022/09/29 07:26:42;;;;;;;;;;;;;;;19.50;74.61;96090.08;615353;230;67041;-70
2022/09/29 07:29:10;;;;;;;;;;;;;;;19.50;74.54;96096.20;615317;230;65086;-74
2022/09/29 07:31:39;;;;;;;;;;;;;;;19.50;74.54;96087.41;615267;228;62776;-72
2022/09/29 07:34:06;;;;;;;;;;;;;;;19.51;74.43;96100.47;615303;230;67247;-73
2022/09/29 07:36:37;;;;;;;;;;;;;;;19.51;74.26;96091.69;615432;230;67064;-69
2022/09/29 07:39:03;;;;;;;;;;;;;;;19.52;74.29;96095.92;615269;230;65061;-69
2022/09/29 07:41:31;;;;;;;;;;;;;;;19.52;74.22;96096.72;615386;230;66700;-69
2022/09/29 07:43:58;;;;;;;;;;;;;;;19.52;74.25;96086.05;615334;230;66914;-72
2022/09/29 07:46:26;;;;;;;;;;;;;;;19.54;74.40;96090.33;615351;230;65126;-70
2022/09/29 07:48:53;;;;;;;;;;;;;;;19.54;74.31;96084.99;615408;230;66786;-70
2022/09/29 07:51:21;;;;;;;;;;;;;;;19.53;74.39;96086.84;615347;230;64533;-68
2022/09/29 07:53:48;;;;;;;;;;;;;;;19.54;74.25;96085.78;615323;230;63727;-73
2022/09/29 07:56:17;;;;;;;;;;;;;;;19.55;74.28;96092.69;615356;230;64619;-71
2022/09/29 07:58:46;;;;;;;;;;;;;;;19.57;74.38;96092.42;615374;230;66876;-73
2022/09/29 08:01:14;;;;;;;;;;;;;;;19.56;74.34;96107.63;615341;230;66143;-76
2022/09/29 08:03:43;;;;;;;;;;;;;;;19.57;74.33;96108.41;615346;230;64826;-70
2022/09/29 08:06:11;;;;;;;;;;;;;;;19.57;74.43;96108.41;615362;230;67096;-70
2022/09/29 08:08:40;;;;;;;;;;;;;;;19.57;74.43;96103.08;615283;230;62683;-71
2022/09/29 08:11:09;;;;;;;;;;;;;;;19.56;74.42;96096.96;615357;230;65287;-75
2022/09/29 08:13:38;;;;;;;;;;;;;;;19.57;74.50;96106.53;615304;230;66867;-69
2022/09/29 08:16:06;;;;;;;;;;;;;;;19.57;74.51;96095.88;616952;229;63778;-70
2022/09/29 08:18:35;;;;;;;;;;;;;;;19.57;74.54;96098.54;618745;229;67027;-72
2022/09/29 08:21:03;;;;;;;;;;;;;;;19.57;74.55;96103.88;618659;229;67890;-75
2022/09/29 08:23:31;;;;;;;;;;;;;;;19.57;74.52;96109.20;618706;227;65094;-72
2022/09/29 08:25:59;;;;;;;;;;;;;;;19.58;74.52;96105.45;618695;229;64800;-74
2022/09/29 08:28:30;;;;;;;;;;;;;;;19.58;74.52;96110.78;618676;227;65639;-75
2022/09/29 08:31:00;;;;;;;;;;;;;;;19.58;74.50;96102.78;618722;229;62765;-74
2022/09/29 08:33:27;;;;;;;;;;;;;;;19.59;74.42;96107.05;618655;229;64897;-74
2022/09/29 08:35:56;;;;;;;;;;;;;;;19.59;74.30;96112.38;618576;229;65614;-76
2022/09/29 08:38:24;;;;;;;;;;;;;;;19.59;74.59;96101.72;618639;227;65295;-68
2022/09/29 08:40:53;;;;;;;;;;;;;;;19.58;74.42;96107.32;618689;229;66983;-75
2022/09/29 08:43:22;;;;;;;;;;;;;;;19.56;74.58;96118.28;618605;229;66842;-76
2022/09/29 08:45:54;;;;;;;;;;;;;;;19.54;74.50;96115.09;618681;229;63753;-71
2022/09/29 08:48:22;;;;;;;;;;;;;;;19.52;74.56;96107.38;618571;229;65775;-74
2022/09/29 08:51:02;;;;;;;;;;;;;;;19.52;74.66;96109.25;618731;229;66393;-74
2022/09/29 08:53:31;;;;;;;;;;;;;;;19.51;74.65;96111.13;618425;229;63884;-74
2022/09/29 08:56:00;;;;;;;;;;;;;;;19.51;74.54;96105.01;618680;229;65466;-70
2022/09/29 08:58:28;;;;;;;;;;;;;;;19.52;74.80;96103.92;616719;229;64905;-73
2022/09/29 09:01:03;;;;;;;;;;;;;;;19.52;74.32;96110.04;618690;229;63119;-73
2022/09/29 09:03:38;;;;;;;;;;;;;;;19.54;74.14;96112.44;618676;229;66713;-72
2022/09/29 09:06:07;;;;;;;;;;;;;;;19.55;73.82;96108.68;618661;229;66909;-71
2022/09/29 09:08:37;;;;;;;;;;;;;;;19.57;73.76;96114.53;618751;229;62811;-70
2022/09/29 09:11:06;;;;;;;;;;;;;;;19.58;73.79;96116.11;618656;229;66738;-70
2022/09/29 09:13:35;;;;;;;;;;;;;;;19.58;73.86;96116.11;618367;227;66504;-68
2022/09/29 09:16:07;;;;;;;;;;;;;;;19.60;73.95;96107.84;618640;229;62804;-69
2022/09/29 09:18:49;;;;;;;;;;;;;;;19.59;74.00;96112.38;618616;229;66576;-71
2022/09/29 09:21:21;;;;;;;;;;;;;;;19.60;74.12;96108.63;618730;229;66817;-68
2022/09/29 09:23:56;;;;;;;;;;;;;;;19.59;74.49;96106.23;618467;229;62893;-70
2022/09/29 09:26:24;;;;;;;;;;;;;;;19.56;74.14;96118.28;618602;229;67153;-71
2022/09/29 09:28:56;;;;;;;;;;;;;;;19.55;74.25;96118.55;618472;229;66841;-71
2022/09/29 09:31:29;;;;;;;;;;;;;;;19.54;74.24;96130.30;618691;229;66001;-71
2022/09/29 09:33:58;;;;;;;;;;;;;;;19.52;74.16;96127.91;617573;229;65457;-71
2022/09/29 09:36:27;;;;;;;;;;;;;;;19.52;74.24;96127.91;618706;229;66591;-70
2022/09/29 09:38:59;;;;;;;;;;;;;;;19.52;74.21;96141.23;618549;229;62728;-70
2022/09/29 09:41:28;;;;;;;;;;;;;;;19.51;74.11;96132.45;618769;229;66796;-71
2022/09/29 09:44:03;;;;;;;;;;;;;;;19.51;73.99;96140.44;618704;229;66849;-72
2022/09/29 09:46:41;;;;;;;;;;;;;;;19.50;73.93;96136.17;618124;227;65312;-73
2022/09/29 09:49:10;;;;;;;;;;;;;;;19.50;73.89;96136.17;618690;229;67047;-74
2022/09/29 09:51:39;;;;;;;;;;;;;;;19.51;73.90;96136.98;618660;229;64513;-73
2022/09/29 09:54:09;;;;;;;;;;;;;;;19.50;73.80;96133.50;618502;227;63967;-74
2022/09/29 09:56:54;;;;;;;;;;;;;;;19.50;73.81;96136.17;616767;229;66745;-74
2022/09/29 09:59:24;;;;;;;;;;;;;;;19.50;73.78;96136.17;618749;229;64684;-73
2022/09/29 10:01:51;;;;;;;;;;;;;;;19.50;73.74;96143.38;618582;229;64892;-73
2022/09/29 10:04:19;;;;;;;;;;;;;;;19.50;73.87;96152.16;618742;229;65543;-72
2022/09/29 10:06:46;;;;;;;;;;;;;;;19.50;73.79;96148.70;618810;229;65764;-72
2022/09/29 10:09:15;;;;;;;;;;;;;;;19.50;73.90;96143.38;618750;229;64847;-73
2022/09/29 10:11:43;;;;;;;;;;;;;;;19.50;73.91;96141.50;618775;229;66589;-72
2022/09/29 10:14:18;;;;;;;;;;;;;;;19.50;73.91;96140.70;618633;229;64940;-72
2022/09/29 10:16:50;;;;;;;;;;;;;;;19.51;73.93;96136.98;615932;228;62728;-72
2022/09/29 10:19:24;;;;;;;;;;;;;;;19.51;73.98;96145.77;615280;230;64565;-73
2022/09/29 10:21:51;;;;;;;;;;;;;;;19.50;74.02;96144.16;615353;230;64737;-73
2022/09/29 10:24:23;;;;;;;;;;;;;;;19.52;74.02;96146.56;615317;230;63611;-72
2022/09/29 10:26:54;;;;;;;;;;;;;;;19.52;74.04;96143.89;615353;230;64856;-73
2022/09/29 10:29:41;;;;;;;;;;;;;;;19.51;74.00;96147.64;615282;230;64828;-73
2022/09/29 10:32:10;;;;;;;;;;;;;;;19.51;74.13;96148.44;615319;230;65130;-72
2022/09/29 10:34:39;;;;;;;;;;;;;;;19.51;74.10;96147.64;614774;228;66628;-73
2022/09/29 10:37:25;;;;;;;;;;;;;;;19.52;74.08;96149.22;615281;230;67434;-72
2022/09/29 10:39:54;;;;;;;;;;;;;;;19.52;74.13;96152.68;615352;230;66102;-74
2022/09/29 10:42:26;;;;;;;;;;;;;;;19.51;74.12;96142.31;615007;230;64808;-75
2022/09/29 10:44:58;;;;;;;;;;;;;;;19.50;74.10;96149.49;615358;230;67607;-75
2022/09/29 10:47:26;;;;;;;;;;;;;;;19.51;74.14;96142.31;615299;230;65378;-72
2022/09/29 10:50:08;;;;;;;;;;;;;;;19.51;74.12;96142.31;615273;230;64524;-72
2022/09/29 10:52:36;;;;;;;;;;;;;;;19.51;74.12;96139.66;614937;230;65014;-72
2022/09/29 10:55:04;;;;;;;;;;;;;;;19.51;74.05;96137.77;615206;230;62897;-73
2022/09/29 10:57:34;;;;;;;;;;;;;;;19.50;74.11;96136.17;615350;230;66816;-73
2022/09/29 11:00:02;;;;;;;;;;;;;;;19.51;74.07;96134.32;615354;230;64589;-72
2022/09/29 11:02:34;;;;;;;;;;;;;;;19.52;74.12;96127.91;615380;228;65161;-72
2022/09/29 11:05:03;;;;;;;;;;;;;;;19.51;74.15;96121.78;614894;230;64528;-72
2022/09/29 11:07:33;;;;;;;;;;;;;;;19.51;74.06;96116.45;615354;230;66593;-72
2022/09/29 11:10:01;;;;;;;;;;;;;;;19.51;73.93;96124.45;615302;230;63032;-72
2022/09/29 11:12:33;;;;;;;;;;;;;;;19.52;74.00;96126.03;615293;230;66672;-72
2022/09/29 11:15:01;;;;;;;;;;;;;;;19.52;73.95;96122.58;615477;229;64429;-72
2022/09/29 11:17:33;;;;;;;;;;;;;;;19.52;74.03;96122.58;618746;226;65097;-73
2022/09/29 11:20:02;;;;;;;;;;;;;;;19.52;73.94;96119.91;618542;228;66750;-74
2022/09/29 11:22:41;;;;;;;;;;;;;;;19.52;74.06;96118.03;618661;229;66461;-73
2022/09/29 11:25:13;;;;;;;;;;;;;;;19.52;74.10;96118.03;618145;228;64888;-71
2022/09/29 11:27:42;;;;;;;;;;;;;;;19.53;74.03;96113.48;618004;229;66870;-72
2022/09/29 11:30:11;;;;;;;;;;;;;;;19.53;74.10;96108.16;618654;226;66820;-71
2022/09/29 11:32:46;;;;;;;;;;;;;;;19.53;74.15;96097.50;618693;229;63638;-72
2022/09/29 11:35:33;;;;;;;;;;;;;;;19.52;74.12;96102.05;618710;229;66767;-72
2022/09/29 11:38:02;;;;;;;;;;;;;;;19.53;74.09;96105.50;605804;229;67430;-73
2022/09/29 11:40:31;;;;;;;;;;;;;;;19.53;73.96;96102.83;613814;229;62784;-75
2022/09/29 11:43:19;;;;;;;;;;;;;;;19.53;73.98;96113.48;618393;228;66874;-69
2022/09/29 11:45:48;;;;;;;;;;;;;;;19.53;74.02;96108.16;618788;229;64195;-72
2022/09/29 11:48:23;;;;;;;;;;;;;;;19.52;73.95;96110.04;618502;228;65047;-72
2022/09/29 11:51:04;;;;;;;;;;;;;;;19.53;74.10;96102.83;618189;228;64029;-73
2022/09/29 11:53:33;;;;;;;;;;;;;;;19.53;73.92;96113.48;618497;228;64324;-72
2022/09/29 11:56:07;;;;;;;;;;;;;;;19.52;74.03;96111.91;618603;229;64771;-72
2022/09/29 11:58:40;;;;;;;;;;;;;;;19.52;73.89;96117.24;618625;228;64568;-73
2022/09/29 12:01:12;;;;;;;;;;;;;;;19.53;73.94;96124.15;618621;228;66392;-73
2022/09/29 12:03:41;;;;;;;;;;;;;;;19.54;73.86;96120.43;608800;228;65179;-72
2022/09/29 12:06:16;;;;;;;;;;;;;;;19.54;73.93;96124.97;618646;228;66703;-74
2022/09/29 12:08:45;;;;;;;;;;;;;;;19.54;73.97;96124.97;618356;228;64042;-74
2022/09/29 12:11:20;;;;;;;;;;;;;;;19.53;73.97;96118.82;618729;229;64773;-70
2022/09/29 12:13:52;;;;;;;;;;;;;;;19.54;74.01;96115.09;618712;228;66330;-76
2022/09/29 12:16:21;;;;;;;;;;;;;;;19.53;73.96;96118.82;617953;228;64494;-78
2022/09/29 12:18:50;;;;;;;;;;;;;;;19.54;73.89;96120.43;617586;229;62499;-74
2022/09/29 12:21:19;;;;;;;;;;;;;;;19.54;73.86;96117.77;617571;229;64541;-75
2022/09/29 12:23:48;;;;;;;;;;;;;;;19.54;73.91;96120.43;617296;228;64600;-72
2022/09/29 12:26:20;;;;;;;;;;;;;;;19.54;73.87;96125.76;617979;227;65094;-80
2022/09/29 12:28:53;;;;;;;;;;;;;;;19.55;74.09;96115.89;624716;227;64741;-76
2022/09/29 12:31:24;;;;;;;;;;;;;;;19.56;74.18;96120.13;624698;227;65456;-76
2022/09/29 12:33:59;;;;;;;;;;;;;;;19.55;74.17;96116.67;624728;227;65115;-74
2022/09/29 12:36:43;;;;;;;;;;;;;;;19.56;74.08;96120.13;624656;227;66833;-75
2022/09/29 12:39:19;;;;;;;;;;;;;;;19.58;74.53;96116.11;624713;227;66575;-77
2022/09/29 12:41:52;;;;;;;;;;;;;;;19.59;74.60;96122.22;624732;226;62709;-75
2022/09/29 12:44:21;;;;;;;;;;;;;;;19.57;74.22;96117.20;624661;227;66896;-76
2022/09/29 12:46:51;;;;;;;;;;;;;;;19.57;74.49;96114.53;624593;227;65728;-76
2022/09/29 12:49:38;;;;;;;;;;;;;;;19.57;74.53;96113.73;624414;226;62894;-76
2022/09/29 12:52:07;;;;;;;;;;;;;;;19.56;74.35;96118.28;624569;227;66720;-74
2022/09/29 12:54:43;;;;;;;;;;;;;;;19.57;74.24;96113.73;624493;226;66654;-77
2022/09/29 12:57:14;;;;;;;;;;;;;;;19.57;74.16;96119.86;624641;226;63000;-76
2022/09/29 12:59:49;;;;;;;;;;;;;;;19.56;74.12;96110.29;624636;227;67707;-76
2022/09/29 13:02:28;;;;;;;;;;;;;;;19.56;74.12;96112.13;623355;227;67765;-77
2022/09/29 13:05:03;;;;;;;;;;;;;;;19.56;74.08;96118.28;624740;227;62787;-76